Aeroporto :
LOGIN :

Iscrizione | Disclaimer

   EN    FR    IT 

 










Sommario :    VFR   VFR Marginale   IFR   IFR Intensivo   IFR Molto Intensivo
Visibilità : 
Base nubi : 
>= 8 km
>= 3000ft
5 / 8 km
1000 / 3000 ft
1500m / 5 km
500 / 1000 ft
800 / 1500m
200 / 500 ft
< 800m
< 200 ft
Simboli :   Temporali  Nebbia  Neve Forte  Precipitazioni Forti  Vento > 20 kt
SIGMETs :   Varie  Temporali  Ghiacco  Turbolenza  Onda orograficha  Ceneri Vulcaniche






- Altitudine del aeroporto : 1455 ft


ETIH - Hohenfels Army Air Field

ULTIMO METAR :
  • 261656Z AUTO 27013G18KT 8000 -RA OVC017 01/M01 A2958 RMK AO2 RAE14SNB14E25RAB25E28SNB28E46RAB46 SLP037 P0000 T00111013 $

METARs OBSOLETI :
  • 261556Z AUTO 25008KT 9999 -RA SCT021 BKN026 02/M01 A2955 RMK AO2 SNE04RAB04E06RAB27E33RAB50 CIG 021V026 SLP027 P0000 T00211013 $
  • 261527Z AUTO 26007KT 9999 -RA BKN019 BKN024 02/M01 A2954 RMK AO2 SNE04RAB04E06RAB27 SLP023 $
  • 261517Z AUTO 25006KT 9999 BKN017 BKN024 02/M01 A2954 RMK AO2 SNE04RAB04E06 BKN017 V SCT SLP023 $
  • 261456Z AUTO 27008G16KT 9999 -SN FEW013 OVC019 02/M01 A2953 RMK AO2 RAB25E38SNB38 SLP018 P0000 60001 T00151011 53017 $
  • 261435Z AUTO 26008G21KT 9999 -RA BKN024 BKN031 03/M02 A2952 RMK AO2 RAB25 CIG 024V032 SLP014 $

Previsioni scadute.



MetMap, La meteo Aeronautica in un colpo d'occhio ! - Copyright ORBIFLY Dicembre 2007 - Disclaimer

ORBIFLY MET'MAP TEAM :

Programmazione e sviluppo : Alexandra Zaïnal
Concezione : Baudouin d'Aumeries
Aiuto per la programmazione : Marc-Olivier Méhu
Supporto tecnico e logistico : Manuel Goepfert
Aiuto per la traduzione : Arnaldo La Scala

Contatto : metmap@orbifly.com




FONTI E CREDITI :

   NOAA